Opasatika, Canada
Current Conditions -  °F | °C
As of 3:00 AM on Saturday 25 Oct 2014 (Local Time) from CYYU Reporting Station
Light Rain Light Rain  
Wind Chill: 41°   Ceiling: 3000
Heat Index: 46°   Visibility: 8mi
Dew Point: 45°   Wind: 10mph
Humidity: 93%   Direction: 220°SW
Pressure: 29.52"   Gusts: NA
Location:  49.53°N, 82.87°W
Report Text: CYYU 250700Z 22009KT 8SM -RA FEW005 OVC030 08/07 A2952 RMK SF2SC6 SLP003
Loading
Personal Weather Stations






























Interactive Weather Map New forecast layout! Learn more

10-Day Weather Forecast

Advertisements
Track Severe Weather on mobile